Tropical Cyclones
[Index]
Main Index Home Page Stock Weather Photos Extreme Storms Discussion Storm News and Storm Chasing Reports Tropical Cyclones / Hurricanes / Typhoons Weather Data and Links Wild Fires / Bushfires Weather Observation Techniques Weather Picture Catalogue Tornado Pictures and Reports Stock Video Footage and DVDs for sale
Season 2008-2009 Tropical Cyclone IZILDA Track Map
Season 2008-2009 Summaries: [BoM-AU] [JTWC-AU] [JTWC-SIO] [JTWC-SPAC] [JTWC-SH]
<<- Previous TC | JTWC 2008-2009 Season | Next TC ->>

click for intensity scale information  Lat/long Grid: Show Hide

 Date Labels: Show Hide

Joint Typhoon Warning Centre Cyclone Data

Name: IZILDA

23 Mar 2009 06:00 UTC to 29 Mar 2009 18:00 UTC

    date/time    lat    long     hPa   cat  kts
2009-03-23 06   18.4    41.0    1007         20          
2009-03-23 12   19.1    40.9    1004         25          
2009-03-23 18   19.7    41.2    1004         25          
2009-03-24 00   20.3    41.5    1004         25          
2009-03-24 06   21.0    41.7    1000         30          
2009-03-24 12   21.7    41.8     996         35          
2009-03-24 18   22.4    41.9     993    1    40          
2009-03-25 00   22.7    42.1     989    1    45          
2009-03-25 06   23.1    42.3     989    1    45          
2009-03-25 12   23.6    42.3     982    2    55          
2009-03-25 12   23.6    42.3     982    2    55          
2009-03-25 18   23.7    42.4     978    2    60          
2009-03-25 18   23.7    42.4     978    2    60          
2009-03-26 00   23.8    42.6     974    2    65          
2009-03-26 00   23.8    42.6     974    2    65          
2009-03-26 06   23.9    42.7     978    2    60          
2009-03-26 06   23.9    42.7     978    2    60          
2009-03-26 12   23.9    42.4     985    1    50          
2009-03-26 18   23.8    42.1     996         35          
2009-03-27 00   23.6    41.9     996         35          
2009-03-27 06   23.4    41.8    1004         25          
2009-03-27 12   23.1    41.1    1007         20          
2009-03-27 18   22.5    40.7    1007         20          
2009-03-28 00   22.1    40.1    1007         20          
2009-03-28 06   21.7    39.5    1007         20          
2009-03-28 12   21.7    38.8    1007         20          
2009-03-28 18   21.4    38.1    1007         20          
2009-03-29 00   21.1    37.4    1007         20          
2009-03-29 06   20.8    36.3    1010         15          
2009-03-29 12   20.3    35.1    1010         15          
2009-03-29 18   20.0    34.2    1010         15          
Winds are 1-min average.

Tropical cyclone tracks developed by Michael Bath using data from the Joint Typhoon Warning Centre Best Tracks and Google Maps.


[Australian Severe Weather index] [Copyright Notice] [Email Contacts] [Search This Site] [Privacy Policy]
Document: tropical_cyclone_izilda.htm Updated: 28 June 2017